createdAt,value
2023-03-29T00:00:30.464Z,6.62
2023-03-29T00:02:33.580Z,6.30
2023-03-29T00:04:36.873Z,6.46
2023-03-29T00:06:42.104Z,6.49
2023-03-29T00:08:46.451Z,6.63
2023-03-29T00:10:51.941Z,6.76
2023-03-29T00:12:55.857Z,6.67
2023-03-29T00:14:59.026Z,6.62
2023-03-29T00:17:02.002Z,6.53
2023-03-29T00:19:05.781Z,6.50
2023-03-29T00:21:09.485Z,6.67
2023-03-29T00:23:12.538Z,6.75
2023-03-29T00:25:17.368Z,6.59
2023-03-29T00:27:20.653Z,6.69
2023-03-29T00:29:23.901Z,6.76
2023-03-29T00:31:28.599Z,6.84
2023-03-29T00:33:32.948Z,6.58
2023-03-29T00:35:35.992Z,6.69
2023-03-29T00:37:39.684Z,6.70
2023-03-29T00:39:42.631Z,6.42
2023-03-29T00:41:47.825Z,6.35
2023-03-29T00:43:53.525Z,6.50
2023-03-29T00:45:56.509Z,6.52
2023-03-29T00:48:02.634Z,6.66
2023-03-29T00:50:10.803Z,6.25
2023-03-29T00:52:15.183Z,6.31
2023-03-29T00:54:19.844Z,6.26
2023-03-29T00:56:24.989Z,6.23
2023-03-29T00:58:33.454Z,6.27
2023-03-29T01:00:38.960Z,6.51
2023-03-29T01:02:43.626Z,6.44
2023-03-29T01:04:50.549Z,6.29
2023-03-29T01:06:57.603Z,6.26
2023-03-29T01:09:02.557Z,6.37
2023-03-29T01:11:11.894Z,6.37
2023-03-29T01:13:26.205Z,6.15
2023-03-29T01:15:31.093Z,6.31
2023-03-29T01:17:34.399Z,6.47
2023-03-29T01:19:39.926Z,6.40
2023-03-29T01:21:46.215Z,6.52
2023-03-29T01:24:24.942Z,6.54
2023-03-29T01:26:32.724Z,6.60
2023-03-29T01:28:39.202Z,6.62
2023-03-29T01:30:46.658Z,6.47
2023-03-29T01:32:55.526Z,6.55
2023-03-29T01:35:01.523Z,6.80
2023-03-29T01:37:08.569Z,6.79
2023-03-29T01:39:11.905Z,6.86
2023-03-29T01:41:15.007Z,6.75
2023-03-29T01:43:26.264Z,6.63
2023-03-29T01:45:35.782Z,6.85
2023-03-29T01:47:46.564Z,6.96
2023-03-29T01:49:56.356Z,6.77
2023-03-29T01:52:01.654Z,6.87
2023-03-29T01:54:06.481Z,6.63
2023-03-29T01:56:13.334Z,6.61
2023-03-29T01:58:18.790Z,6.53
2023-03-29T02:00:24.788Z,6.69
2023-03-29T02:02:30.719Z,6.80
2023-03-29T02:04:35.689Z,6.54
2023-03-29T02:06:39.687Z,6.76
2023-03-29T02:08:43.349Z,6.78
2023-03-29T02:10:46.756Z,6.74
2023-03-29T02:12:50.610Z,6.77
2023-03-29T02:14:54.084Z,6.78
2023-03-29T02:16:57.216Z,6.82
2023-03-29T02:19:01.593Z,6.80
2023-03-29T02:21:04.806Z,6.77
2023-03-29T02:23:12.534Z,6.66
2023-03-29T02:25:16.950Z,6.66
2023-03-29T02:27:20.123Z,6.91
2023-03-29T02:29:23.069Z,7.15
2023-03-29T02:31:30.445Z,6.89
2023-03-29T02:33:39.706Z,6.77
2023-03-29T02:35:48.653Z,7.15
2023-03-29T02:37:54.463Z,7.11
2023-03-29T02:39:58.964Z,7.22
2023-03-29T02:42:03.398Z,7.22
2023-03-29T02:44:07.519Z,7.23
2023-03-29T02:46:12.154Z,7.37
2023-03-29T02:48:19.473Z,7.40
2023-03-29T02:50:23.092Z,7.38
2023-03-29T02:52:30.034Z,7.47
2023-03-29T02:54:33.173Z,7.37
2023-03-29T02:56:43.293Z,7.44
2023-03-29T02:58:46.258Z,7.46
2023-03-29T03:00:50.382Z,7.47
2023-03-29T03:02:55.192Z,7.61
2023-03-29T03:04:59.229Z,7.29
2023-03-29T03:07:02.433Z,7.51
2023-03-29T03:09:07.658Z,7.28
2023-03-29T03:11:13.462Z,7.20
2023-03-29T03:13:16.608Z,7.28
2023-03-29T03:15:20.204Z,7.68
2023-03-29T03:17:23.444Z,7.50
2023-03-29T03:19:26.836Z,7.35
2023-03-29T03:21:29.807Z,7.37
2023-03-29T03:23:33.409Z,7.29
2023-03-29T03:25:37.802Z,7.40
2023-03-29T03:27:41.466Z,7.63
2023-03-29T03:29:44.735Z,7.53
2023-03-29T03:32:23.281Z,7.61
2023-03-29T03:34:55.157Z,7.64
2023-03-29T03:37:01.901Z,7.61
2023-03-29T03:39:08.111Z,7.64
2023-03-29T03:41:12.979Z,7.40
2023-03-29T03:43:16.421Z,7.63
2023-03-29T03:45:22.513Z,7.72
2023-03-29T03:47:29.268Z,7.72
2023-03-29T03:49:37.531Z,7.78
2023-03-29T03:51:42.065Z,7.60
2023-03-29T03:53:45.753Z,7.72
2023-03-29T03:55:49.397Z,7.88
2023-03-29T03:57:59.397Z,7.85
2023-03-29T04:00:09.692Z,7.83
2023-03-29T04:02:15.848Z,7.88
2023-03-29T04:04:20.960Z,7.87
2023-03-29T04:06:53.417Z,7.88
2023-03-29T04:09:09.187Z,7.86
2023-03-29T04:11:16.507Z,7.86
2023-03-29T04:13:21.700Z,7.79
2023-03-29T04:15:43.438Z,7.94
2023-03-29T04:17:48.707Z,7.88
2023-03-29T04:20:06.891Z,7.82
2023-03-29T04:22:10.407Z,7.81
2023-03-29T04:24:14.104Z,7.84
2023-03-29T04:26:21.049Z,7.90
2023-03-29T04:28:29.014Z,8.01
2023-03-29T04:30:42.660Z,7.97
2023-03-29T04:32:50.788Z,7.93
2023-03-29T04:34:54.896Z,7.88
2023-03-29T04:36:58.967Z,8.05
2023-03-29T04:39:02.266Z,7.85
2023-03-29T04:41:08.785Z,7.81
2023-03-29T04:43:24.536Z,7.99
2023-03-29T04:45:38.418Z,7.83
2023-03-29T04:48:01.452Z,7.99
2023-03-29T04:50:04.752Z,8.04
2023-03-29T04:52:15.670Z,8.16
2023-03-29T04:54:19.526Z,8.13
2023-03-29T04:56:42.165Z,7.98
2023-03-29T04:59:23.367Z,7.98
2023-03-29T05:01:29.063Z,7.85
2023-03-29T05:03:35.707Z,8.03
2023-03-29T05:05:51.244Z,7.90
2023-03-29T05:07:55.045Z,7.88
2023-03-29T05:10:03.439Z,8.03
2023-03-29T05:12:06.982Z,7.98
2023-03-29T05:14:23.376Z,7.85
2023-03-29T05:16:30.030Z,7.78
2023-03-29T05:18:34.192Z,7.80
2023-03-29T05:20:37.922Z,7.93
2023-03-29T05:22:41.207Z,8.07
2023-03-29T05:24:47.154Z,8.06
2023-03-29T05:26:53.548Z,8.14
2023-03-29T05:28:57.665Z,8.01
2023-03-29T05:31:02.352Z,8.22
2023-03-29T05:33:07.176Z,7.95
2023-03-29T05:35:11.969Z,7.99
2023-03-29T05:37:15.515Z,7.99
2023-03-29T05:39:26.562Z,8.04
2023-03-29T05:41:30.072Z,8.03
2023-03-29T05:43:54.278Z,8.13
2023-03-29T05:46:00.656Z,8.22
2023-03-29T05:48:08.879Z,8.22
2023-03-29T05:50:14.517Z,8.33
2023-03-29T05:52:18.532Z,8.21
2023-03-29T05:54:21.923Z,8.11
2023-03-29T05:56:25.872Z,8.23
2023-03-29T05:58:30.791Z,8.08
2023-03-29T06:00:37.172Z,8.23
2023-03-29T06:03:19.972Z,8.18
2023-03-29T06:05:24.283Z,7.87
2023-03-29T06:07:38.271Z,8.11
2023-03-29T06:10:12.085Z,8.16
2023-03-29T06:12:20.162Z,8.39
2023-03-29T06:14:33.940Z,8.30
2023-03-29T06:16:47.071Z,8.32
2023-03-29T06:18:52.217Z,8.43
2023-03-29T06:20:55.505Z,8.42
2023-03-29T06:22:59.589Z,8.49
2023-03-29T06:25:02.897Z,8.62
2023-03-29T06:27:09.357Z,8.41
2023-03-29T06:29:12.880Z,8.56
2023-03-29T06:31:17.954Z,8.57
2023-03-29T06:33:21.549Z,8.65
2023-03-29T06:35:31.770Z,8.53
2023-03-29T06:37:49.280Z,8.26
2023-03-29T06:40:17.576Z,8.45
2023-03-29T06:42:21.909Z,8.69
2023-03-29T06:44:47.988Z,8.58
2023-03-29T06:46:55.950Z,8.71
2023-03-29T06:48:59.690Z,8.62
2023-03-29T06:51:12.454Z,8.61
2023-03-29T06:53:16.986Z,8.58
2023-03-29T06:55:26.038Z,8.58
2023-03-29T06:57:32.038Z,8.61
2023-03-29T06:59:36.463Z,8.77
2023-03-29T07:02:00.624Z,8.94
2023-03-29T07:04:32.900Z,8.95
2023-03-29T07:07:01.575Z,9.11
2023-03-29T07:09:06.660Z,9.07
2023-03-29T07:11:39.259Z,9.19
2023-03-29T07:13:58.840Z,9.03
2023-03-29T07:16:02.538Z,9.25
2023-03-29T07:18:32.137Z,9.38
2023-03-29T07:20:35.623Z,9.16
2023-03-29T07:22:44.875Z,9.31
2023-03-29T07:24:49.524Z,9.42
2023-03-29T07:27:03.108Z,9.38
2023-03-29T07:29:09.288Z,9.25
2023-03-29T07:31:13.415Z,9.46
2023-03-29T07:33:21.752Z,9.69
2023-03-29T07:35:28.592Z,9.48
2023-03-29T07:37:31.963Z,9.51
2023-03-29T07:39:37.268Z,9.47
2023-03-29T07:41:59.065Z,9.65
2023-03-29T07:44:04.993Z,9.79
2023-03-29T07:46:10.187Z,9.52
2023-03-29T07:48:14.594Z,9.84
2023-03-29T07:50:35.874Z,9.76
2023-03-29T07:52:40.686Z,10.13
2023-03-29T07:54:45.356Z,9.99
2023-03-29T07:57:17.611Z,9.98
2023-03-29T07:59:27.478Z,10.01
2023-03-29T08:01:51.999Z,10.03
2023-03-29T08:04:04.815Z,9.99
2023-03-29T08:06:27.722Z,10.09
2023-03-29T08:08:30.970Z,9.98
2023-03-29T08:10:40.454Z,9.91
2023-03-29T08:13:06.130Z,10.04
2023-03-29T08:15:31.114Z,10.17
2023-03-29T08:17:34.940Z,10.27
2023-03-29T08:19:38.824Z,10.17
2023-03-29T08:21:44.317Z,10.52
2023-03-29T08:23:47.288Z,10.49
2023-03-29T08:25:56.626Z,10.72
2023-03-29T08:28:00.256Z,10.82
2023-03-29T08:30:16.061Z,10.80
2023-03-29T08:32:20.130Z,10.93
2023-03-29T08:34:23.547Z,11.24
2023-03-29T08:36:52.578Z,11.31
2023-03-29T08:39:03.422Z,11.65
2023-03-29T08:41:25.519Z,11.52
2023-03-29T08:43:49.493Z,11.60
2023-03-29T08:46:33.078Z,11.27
2023-03-29T08:48:49.034Z,11.28
2023-03-29T08:50:58.490Z,10.93
2023-03-29T08:53:04.760Z,11.00
2023-03-29T08:55:32.081Z,11.29
2023-03-29T08:57:56.786Z,11.41
2023-03-29T09:00:10.678Z,11.53
2023-03-29T09:02:18.927Z,11.38
2023-03-29T09:04:28.557Z,11.70
2023-03-29T09:06:40.760Z,11.47
2023-03-29T09:08:53.850Z,11.73
2023-03-29T09:11:17.323Z,11.67
2023-03-29T09:13:31.277Z,11.40
2023-03-29T09:15:38.908Z,11.07
2023-03-29T09:18:03.189Z,11.27
2023-03-29T09:20:15.392Z,11.45
2023-03-29T09:22:23.622Z,11.29
2023-03-29T09:24:37.480Z,11.39
2023-03-29T09:26:49.799Z,11.41
2023-03-29T09:29:13.636Z,11.32
2023-03-29T09:31:22.969Z,11.44
2023-03-29T09:33:27.741Z,11.52
2023-03-29T09:35:49.646Z,11.34
2023-03-29T09:37:53.922Z,11.57
2023-03-29T09:39:57.698Z,11.73
2023-03-29T09:42:14.216Z,11.59
2023-03-29T09:44:30.138Z,11.49
2023-03-29T09:46:41.028Z,11.48
2023-03-29T09:48:45.906Z,11.74
2023-03-29T09:50:51.619Z,11.76
2023-03-29T09:52:55.427Z,11.96
2023-03-29T09:55:04.558Z,11.95
2023-03-29T09:57:20.250Z,12.05
2023-03-29T09:59:25.759Z,12.25
2023-03-29T10:01:37.213Z,12.24
2023-03-29T10:03:42.236Z,12.49
2023-03-29T10:05:48.624Z,12.63
2023-03-29T10:07:55.588Z,12.87
2023-03-29T10:09:58.803Z,12.80
2023-03-29T10:12:03.521Z,12.89
2023-03-29T10:14:13.736Z,13.12
2023-03-29T10:16:23.062Z,13.13
2023-03-29T10:18:27.066Z,12.94
2023-03-29T10:20:31.045Z,12.91
2023-03-29T10:22:37.476Z,12.96
2023-03-29T10:24:40.519Z,12.98
2023-03-29T10:26:43.558Z,13.13
2023-03-29T10:28:46.585Z,13.02
2023-03-29T10:30:55.208Z,13.08
2023-03-29T10:33:00.993Z,13.35
2023-03-29T10:35:10.732Z,13.24
2023-03-29T10:37:16.749Z,13.04
2023-03-29T10:39:20.324Z,12.98
2023-03-29T10:41:24.230Z,12.83
2023-03-29T10:43:29.554Z,12.86
2023-03-29T10:45:36.514Z,13.04
2023-03-29T10:47:39.541Z,13.18
2023-03-29T10:49:47.970Z,13.06
2023-03-29T10:51:51.596Z,12.89
2023-03-29T10:53:54.567Z,12.95
2023-03-29T10:56:07.598Z,13.15
2023-03-29T10:58:25.519Z,13.12
2023-03-29T11:00:33.785Z,13.33
2023-03-29T11:02:52.314Z,13.46
2023-03-29T11:05:12.032Z,13.41
2023-03-29T11:07:28.805Z,13.39
2023-03-29T11:09:43.797Z,13.55
2023-03-29T11:12:15.698Z,13.67
2023-03-29T11:14:27.270Z,13.86
2023-03-29T11:16:34.219Z,14.00
2023-03-29T11:19:11.928Z,14.51
2023-03-29T11:21:23.697Z,14.34
2023-03-29T11:23:37.518Z,14.24
2023-03-29T11:25:47.459Z,14.37
2023-03-29T11:27:55.583Z,14.16
2023-03-29T11:30:08.800Z,14.08
2023-03-29T11:32:16.314Z,14.08
2023-03-29T11:34:27.640Z,14.32
2023-03-29T11:36:39.809Z,14.60
2023-03-29T11:38:49.440Z,14.41
2023-03-29T11:40:59.556Z,14.49
2023-03-29T11:43:05.801Z,15.07
2023-03-29T11:45:14.578Z,14.85
2023-03-29T11:47:22.053Z,14.77
2023-03-29T11:49:28.042Z,14.81
2023-03-29T11:51:37.524Z,15.26
2023-03-29T11:53:48.850Z,15.16
2023-03-29T11:55:53.907Z,15.21
2023-03-29T11:57:58.083Z,15.42
2023-03-29T12:00:05.567Z,15.30
2023-03-29T12:02:21.097Z,15.42
2023-03-29T12:04:28.813Z,15.28
2023-03-29T12:06:37.350Z,15.80
2023-03-29T12:08:43.416Z,15.94
2023-03-29T12:10:49.593Z,16.17
2023-03-29T12:12:58.601Z,16.21
2023-03-29T12:15:05.069Z,16.16
2023-03-29T12:17:12.802Z,16.15
2023-03-29T12:19:18.743Z,16.30
2023-03-29T12:21:23.244Z,16.22
2023-03-29T12:23:31.397Z,16.21
2023-03-29T12:25:41.667Z,16.63
2023-03-29T12:27:49.969Z,16.54
2023-03-29T12:30:17.764Z,17.05
2023-03-29T12:32:43.204Z,16.78
2023-03-29T12:35:25.305Z,17.24
2023-03-29T12:37:48.440Z,17.24
2023-03-29T12:40:17.052Z,17.06
2023-03-29T12:42:46.136Z,16.48
2023-03-29T12:45:21.241Z,15.85
2023-03-29T12:47:25.937Z,15.87
2023-03-29T12:49:32.813Z,15.63
2023-03-29T12:51:37.218Z,16.02
2023-03-29T12:53:41.065Z,15.63
2023-03-29T12:55:56.877Z,16.03
2023-03-29T12:58:03.701Z,16.51
2023-03-29T13:00:20.060Z,16.75
2023-03-29T13:02:34.916Z,16.24
2023-03-29T13:04:49.775Z,16.29
2023-03-29T13:07:04.590Z,15.85
2023-03-29T13:09:22.057Z,15.52
2023-03-29T13:11:29.406Z,15.66
2023-03-29T13:13:34.824Z,15.28
2023-03-29T13:15:38.581Z,15.07
2023-03-29T13:17:48.335Z,15.26
2023-03-29T13:19:54.543Z,15.36
2023-03-29T13:22:06.084Z,15.57
2023-03-29T13:24:26.201Z,15.73
2023-03-29T13:26:42.692Z,15.76
2023-03-29T13:29:02.674Z,15.62
2023-03-29T13:31:08.627Z,15.31
2023-03-29T13:33:23.379Z,15.47
2023-03-29T13:35:35.927Z,15.53
2023-03-29T13:37:43.252Z,15.48
2023-03-29T13:39:50.519Z,15.54
2023-03-29T13:42:23.879Z,15.53
2023-03-29T13:44:41.375Z,15.51
2023-03-29T13:46:45.618Z,15.66
2023-03-29T13:48:53.948Z,15.82
2023-03-29T13:50:58.429Z,16.22
2023-03-29T13:53:06.044Z,16.19
2023-03-29T13:55:16.955Z,16.45
2023-03-29T13:57:24.097Z,16.43
2023-03-29T13:59:33.278Z,16.82
2023-03-29T14:01:40.525Z,16.66
2023-03-29T14:03:45.758Z,16.70
2023-03-29T14:05:50.903Z,16.97
2023-03-29T14:07:54.849Z,16.90
2023-03-29T14:09:59.905Z,16.65
2023-03-29T14:12:03.105Z,16.37
2023-03-29T14:14:08.560Z,16.49
2023-03-29T14:16:13.761Z,16.06
2023-03-29T14:18:18.972Z,16.08
2023-03-29T14:20:21.969Z,15.99
2023-03-29T14:22:25.164Z,15.94
2023-03-29T14:24:35.568Z,15.94
2023-03-29T14:26:40.465Z,16.08
2023-03-29T14:28:46.980Z,16.22
2023-03-29T14:30:52.827Z,16.05
2023-03-29T14:32:56.890Z,16.31
2023-03-29T14:35:01.904Z,15.83
2023-03-29T14:37:05.795Z,16.05
2023-03-29T14:39:13.123Z,15.92
2023-03-29T14:41:16.354Z,16.16
2023-03-29T14:43:22.123Z,16.12
2023-03-29T14:45:25.408Z,16.18
2023-03-29T14:47:31.061Z,16.06
2023-03-29T14:49:34.506Z,16.02
2023-03-29T14:51:40.567Z,16.27
2023-03-29T14:53:43.790Z,16.19
2023-03-29T14:55:50.320Z,16.19
2023-03-29T14:57:55.987Z,16.20
2023-03-29T15:00:01.580Z,16.35
2023-03-29T15:02:04.966Z,16.38
2023-03-29T15:04:11.031Z,16.24
2023-03-29T15:06:15.752Z,16.40
2023-03-29T15:08:21.025Z,16.53
2023-03-29T15:10:24.180Z,16.48
2023-03-29T15:12:30.800Z,16.62
2023-03-29T15:14:34.955Z,16.26
2023-03-29T15:16:40.410Z,16.17
2023-03-29T15:18:44.612Z,16.37
2023-03-29T15:20:51.325Z,16.30
2023-03-29T15:22:57.735Z,16.42
2023-03-29T15:25:00.879Z,16.51
2023-03-29T15:27:06.917Z,16.48
2023-03-29T15:29:13.953Z,16.40
2023-03-29T15:31:19.970Z,16.75
2023-03-29T15:33:24.885Z,16.75
2023-03-29T15:35:28.526Z,16.73
2023-03-29T15:37:32.881Z,16.81
2023-03-29T15:39:36.053Z,16.81
2023-03-29T15:41:39.010Z,16.58
2023-03-29T15:43:42.315Z,16.61
2023-03-29T15:45:47.728Z,16.46
2023-03-29T15:47:50.963Z,16.50
2023-03-29T15:49:53.945Z,16.56
2023-03-29T15:51:58.705Z,16.77
2023-03-29T15:54:03.155Z,16.52
2023-03-29T15:56:10.126Z,16.46
2023-03-29T15:58:15.746Z,16.69
2023-03-29T16:00:19.816Z,16.75
2023-03-29T16:02:25.005Z,16.60
2023-03-29T16:04:28.210Z,16.44
2023-03-29T16:06:31.684Z,16.38
2023-03-29T16:08:34.665Z,16.44
2023-03-29T16:10:39.194Z,16.62
2023-03-29T16:12:42.733Z,16.74
2023-03-29T16:14:45.768Z,16.70
2023-03-29T16:16:50.256Z,16.75
2023-03-29T16:18:53.243Z,16.55
2023-03-29T16:20:56.893Z,16.51
2023-03-29T16:22:59.787Z,16.55
2023-03-29T16:25:05.203Z,16.43
2023-03-29T16:27:09.557Z,16.64
2023-03-29T16:29:12.841Z,16.59
2023-03-29T16:31:15.959Z,16.71
2023-03-29T16:33:19.100Z,16.50
2023-03-29T16:35:27.148Z,16.70
2023-03-29T16:37:32.640Z,16.72
2023-03-29T16:39:36.118Z,16.72
2023-03-29T16:41:39.198Z,16.66
2023-03-29T16:43:43.530Z,16.54
2023-03-29T16:45:46.978Z,16.49
2023-03-29T16:47:50.001Z,16.61
2023-03-29T16:49:53.029Z,16.61
2023-03-29T16:51:56.157Z,16.61
2023-03-29T16:54:00.891Z,16.54
2023-03-29T16:56:04.448Z,16.69
2023-03-29T16:58:07.803Z,16.48
2023-03-29T17:00:15.901Z,16.25
2023-03-29T17:02:19.006Z,16.21
2023-03-29T17:04:22.235Z,16.36
2023-03-29T17:06:26.670Z,16.25
2023-03-29T17:08:29.793Z,16.24
2023-03-29T17:10:32.949Z,16.14
2023-03-29T17:12:36.305Z,16.22
2023-03-29T17:14:39.404Z,16.25
2023-03-29T17:16:43.743Z,16.33
2023-03-29T17:18:46.808Z,16.24
2023-03-29T17:20:52.368Z,16.21
2023-03-29T17:22:56.076Z,16.23
2023-03-29T17:24:59.044Z,16.33
2023-03-29T17:27:02.427Z,16.05
2023-03-29T17:29:05.610Z,15.94
2023-03-29T17:31:09.083Z,15.94
2023-03-29T17:33:14.430Z,16.11
2023-03-29T17:35:17.359Z,16.23
2023-03-29T17:37:20.316Z,16.30
2023-03-29T17:39:25.126Z,16.39
2023-03-29T17:41:30.394Z,16.36
2023-03-29T17:43:33.823Z,16.33
2023-03-29T17:45:36.727Z,16.42
2023-03-29T17:47:40.164Z,16.26
2023-03-29T17:49:44.475Z,16.36
2023-03-29T17:51:47.462Z,16.17
2023-03-29T17:53:52.443Z,16.32
2023-03-29T17:55:56.368Z,16.29
2023-03-29T17:57:59.491Z,16.16
2023-03-29T18:00:02.522Z,16.30
2023-03-29T18:02:08.459Z,16.32
2023-03-29T18:04:11.802Z,16.04
2023-03-29T18:06:18.145Z,16.00
2023-03-29T18:08:21.384Z,15.90
2023-03-29T18:10:24.907Z,16.03
2023-03-29T18:12:28.946Z,15.97
2023-03-29T18:14:31.955Z,15.85
2023-03-29T18:16:36.940Z,15.92
2023-03-29T18:18:41.518Z,16.06
2023-03-29T18:20:46.108Z,15.96
2023-03-29T18:22:50.574Z,15.98
2023-03-29T18:24:55.268Z,15.84
2023-03-29T18:26:58.217Z,16.04
2023-03-29T18:29:01.843Z,16.04
2023-03-29T18:31:05.799Z,16.08
2023-03-29T18:33:09.101Z,16.11
2023-03-29T18:35:12.312Z,16.10
2023-03-29T18:37:17.677Z,15.85
2023-03-29T18:39:22.032Z,16.06
2023-03-29T18:41:24.987Z,15.87
2023-03-29T18:43:28.357Z,15.83
2023-03-29T18:45:31.603Z,16.01
2023-03-29T18:47:34.530Z,15.88
2023-03-29T18:49:37.702Z,15.97
2023-03-29T18:51:42.088Z,15.86
2023-03-29T18:53:45.051Z,15.97
2023-03-29T18:55:49.755Z,15.96
2023-03-29T18:57:53.339Z,15.89
2023-03-29T18:59:56.542Z,15.87
2023-03-29T19:02:00.198Z,15.78
2023-03-29T19:04:03.287Z,15.77
2023-03-29T19:06:07.180Z,15.79
2023-03-29T19:08:10.816Z,15.68
2023-03-29T19:10:13.856Z,15.84
2023-03-29T19:12:18.270Z,15.71
2023-03-29T19:14:24.777Z,15.46
2023-03-29T19:16:27.917Z,15.61
2023-03-29T19:18:31.316Z,15.51
2023-03-29T19:20:34.752Z,15.66
2023-03-29T19:22:37.798Z,15.38
2023-03-29T19:24:41.200Z,15.66
2023-03-29T19:26:44.778Z,15.65
2023-03-29T19:28:49.309Z,15.31
2023-03-29T19:30:52.300Z,15.63
2023-03-29T19:32:55.475Z,15.42
2023-03-29T19:34:58.452Z,15.51
2023-03-29T19:37:01.516Z,15.55
2023-03-29T19:39:05.035Z,15.59
2023-03-29T19:41:08.925Z,15.62
2023-03-29T19:43:16.353Z,15.35
2023-03-29T19:45:21.672Z,15.37
2023-03-29T19:47:24.959Z,15.47
2023-03-29T19:49:27.977Z,15.48
2023-03-29T19:51:31.170Z,15.51
2023-03-29T19:53:38.261Z,15.49
2023-03-29T19:55:42.709Z,15.33
2023-03-29T19:57:45.585Z,15.25
2023-03-29T19:59:48.485Z,15.35
2023-03-29T20:01:52.829Z,15.35
2023-03-29T20:03:56.063Z,15.44
2023-03-29T20:05:59.024Z,15.52
2023-03-29T20:08:01.872Z,15.54
2023-03-29T20:10:05.270Z,15.57
2023-03-29T20:12:08.242Z,15.51
2023-03-29T20:14:11.382Z,15.53
2023-03-29T20:16:16.408Z,15.52
2023-03-29T20:18:20.991Z,15.41
2023-03-29T20:20:24.934Z,15.40
2023-03-29T20:22:30.687Z,15.34
2023-03-29T20:24:34.764Z,15.17
2023-03-29T20:26:37.787Z,15.20
2023-03-29T20:28:40.643Z,15.10
2023-03-29T20:30:43.577Z,15.16
2023-03-29T20:32:46.565Z,15.17
2023-03-29T20:34:51.073Z,15.18
2023-03-29T20:36:55.196Z,15.22
2023-03-29T20:38:59.334Z,15.15
2023-03-29T20:41:04.192Z,15.12
2023-03-29T20:43:07.671Z,15.28
2023-03-29T20:45:18.834Z,15.17
2023-03-29T20:47:22.883Z,15.05
2023-03-29T20:49:26.570Z,15.03
2023-03-29T20:51:31.878Z,15.15
2023-03-29T20:53:35.098Z,15.25
2023-03-29T20:55:39.042Z,15.25
2023-03-29T20:57:42.219Z,15.29
2023-03-29T20:59:45.697Z,15.29
2023-03-29T21:01:50.387Z,15.28
2023-03-29T21:03:53.409Z,15.18
2023-03-29T21:05:58.286Z,15.25
2023-03-29T21:08:04.333Z,15.31
2023-03-29T21:10:09.330Z,15.33
2023-03-29T21:12:12.525Z,15.31
2023-03-29T21:14:19.477Z,15.30
2023-03-29T21:16:22.815Z,15.27
2023-03-29T21:18:26.067Z,15.33
2023-03-29T21:20:29.457Z,15.25
2023-03-29T21:22:34.375Z,15.22
2023-03-29T21:24:39.334Z,15.26
2023-03-29T21:26:43.081Z,15.17
2023-03-29T21:28:45.996Z,14.96
2023-03-29T21:30:48.819Z,15.04
2023-03-29T21:32:52.432Z,15.21
2023-03-29T21:34:55.752Z,15.11
2023-03-29T21:37:00.327Z,15.16
2023-03-29T21:39:03.342Z,15.13
2023-03-29T21:41:10.928Z,15.15
2023-03-29T21:43:15.739Z,15.06
2023-03-29T21:45:19.645Z,14.89
2023-03-29T21:47:22.507Z,15.04
2023-03-29T21:49:25.368Z,15.07
2023-03-29T21:51:28.210Z,15.07
2023-03-29T21:53:31.381Z,15.10
2023-03-29T21:55:36.315Z,14.98
2023-03-29T21:57:41.151Z,15.05
2023-03-29T21:59:44.149Z,15.07
2023-03-29T22:01:47.062Z,15.02
2023-03-29T22:03:49.983Z,15.06
2023-03-29T22:06:00.515Z,15.07
2023-03-29T22:08:04.018Z,14.95
2023-03-29T22:10:07.981Z,15.00
2023-03-29T22:12:14.589Z,14.92
2023-03-29T22:14:19.438Z,14.81
2023-03-29T22:16:25.614Z,14.93
2023-03-29T22:18:30.368Z,15.04
2023-03-29T22:20:35.595Z,14.99
2023-03-29T22:22:40.004Z,14.93
2023-03-29T22:24:43.226Z,14.98
2023-03-29T22:26:46.241Z,14.85
2023-03-29T22:28:49.685Z,15.00
2023-03-29T22:30:54.037Z,14.90
2023-03-29T22:32:56.881Z,14.90
2023-03-29T22:34:59.808Z,14.90
2023-03-29T22:37:02.852Z,14.91
2023-03-29T22:39:06.594Z,14.99
2023-03-29T22:41:10.242Z,14.84
2023-03-29T22:43:13.173Z,14.84
2023-03-29T22:45:16.230Z,15.00
2023-03-29T22:47:20.520Z,15.06
2023-03-29T22:49:23.418Z,15.15
2023-03-29T22:51:27.268Z,15.03
2023-03-29T22:53:30.423Z,14.99
2023-03-29T22:55:33.339Z,15.07
2023-03-29T22:57:36.284Z,15.05
2023-03-29T22:59:39.089Z,15.08
2023-03-29T23:01:42.038Z,15.07
2023-03-29T23:03:46.518Z,15.10
2023-03-29T23:05:52.545Z,15.09
2023-03-29T23:07:55.928Z,15.22
2023-03-29T23:09:59.027Z,15.22
2023-03-29T23:12:02.226Z,15.19
2023-03-29T23:14:05.053Z,15.14
2023-03-29T23:16:08.547Z,15.13
2023-03-29T23:18:13.073Z,15.19
2023-03-29T23:20:17.594Z,14.95
2023-03-29T23:22:20.452Z,14.99
2023-03-29T23:24:23.448Z,14.89
2023-03-29T23:26:27.771Z,15.02
2023-03-29T23:28:31.694Z,14.93
2023-03-29T23:30:35.878Z,15.11
2023-03-29T23:32:39.055Z,15.01
2023-03-29T23:34:42.037Z,15.13
2023-03-29T23:36:46.847Z,15.15
2023-03-29T23:38:50.238Z,15.05
2023-03-29T23:40:54.515Z,15.05
2023-03-29T23:42:59.644Z,15.10
2023-03-29T23:45:02.773Z,15.09
2023-03-29T23:47:06.057Z,15.10
2023-03-29T23:49:09.943Z,15.12
2023-03-29T23:51:13.032Z,15.20
2023-03-29T23:53:17.616Z,15.28
2023-03-29T23:56:07.713Z,15.35
2023-03-29T23:58:12.082Z,15.27
